createdAt,value
2022-08-28T00:01:59.601Z,22.94
2022-08-28T00:07:02.989Z,22.87
2022-08-28T00:12:06.882Z,22.80
2022-08-28T00:17:09.860Z,22.81
2022-08-28T00:22:12.832Z,22.80
2022-08-28T00:27:37.063Z,22.80
2022-08-28T00:32:39.918Z,22.77
2022-08-28T00:37:42.805Z,22.69
2022-08-28T00:42:47.376Z,22.63
2022-08-28T00:47:51.248Z,22.61
2022-08-28T00:53:00.150Z,22.61
2022-08-28T00:58:05.717Z,22.59
2022-08-28T01:03:09.111Z,22.55
2022-08-28T01:08:13.062Z,22.49
2022-08-28T01:13:18.233Z,22.40
2022-08-28T01:18:22.589Z,22.33
2022-08-28T01:23:41.969Z,22.30
2022-08-28T01:28:45.782Z,22.33
2022-08-28T01:33:48.890Z,22.34
2022-08-28T01:38:59.153Z,22.31
2022-08-28T01:44:02.264Z,22.29
2022-08-28T01:49:05.176Z,22.22
2022-08-28T01:54:09.963Z,22.18
2022-08-28T01:59:14.545Z,22.19
2022-08-28T02:04:17.529Z,22.19
2022-08-28T02:09:20.593Z,22.19
2022-08-28T02:14:23.702Z,22.16
2022-08-28T02:19:26.556Z,22.16
2022-08-28T02:24:29.611Z,22.21
2022-08-28T02:29:32.776Z,22.28
2022-08-28T02:34:36.429Z,22.30
2022-08-28T02:39:40.792Z,22.28
2022-08-28T02:44:43.804Z,22.23
2022-08-28T02:49:46.715Z,22.19
2022-08-28T02:54:49.639Z,22.21
2022-08-28T02:59:52.497Z,22.24
2022-08-28T03:04:56.289Z,22.26
2022-08-28T03:09:59.273Z,22.29
2022-08-28T03:15:04.879Z,22.23
2022-08-28T03:20:09.956Z,22.18
2022-08-28T03:25:12.995Z,22.17
2022-08-28T03:30:16.143Z,22.17
2022-08-28T03:35:20.345Z,22.15
2022-08-28T03:40:23.428Z,22.14
2022-08-28T03:45:26.504Z,22.10
2022-08-28T03:50:29.543Z,22.04
2022-08-28T03:55:32.685Z,22.02
2022-08-28T04:00:35.639Z,22.02
2022-08-28T04:05:43.304Z,22.08
2022-08-28T04:10:47.715Z,22.21
2022-08-28T04:16:10.603Z,22.27
2022-08-28T04:21:18.079Z,22.27
2022-08-28T04:26:23.921Z,22.32
2022-08-28T04:31:31.759Z,22.39
2022-08-28T04:36:35.777Z,22.40
2022-08-28T04:41:39.234Z,22.34
2022-08-28T04:46:42.302Z,22.31
2022-08-28T04:51:45.359Z,22.36
2022-08-28T04:56:50.142Z,22.47
2022-08-28T05:01:53.963Z,22.56
2022-08-28T05:06:56.977Z,22.56
2022-08-28T05:12:03.802Z,22.55
2022-08-28T05:17:06.835Z,22.55
2022-08-28T05:22:10.756Z,22.63
2022-08-28T05:27:13.986Z,22.78
2022-08-28T05:32:17.003Z,22.91
2022-08-28T05:37:19.889Z,23.06
2022-08-28T05:42:22.952Z,23.18
2022-08-28T05:47:32.832Z,23.22
2022-08-28T05:52:35.864Z,23.25
2022-08-28T05:57:40.202Z,23.29
2022-08-28T06:02:44.532Z,23.32
2022-08-28T06:07:47.617Z,23.35
2022-08-28T06:12:50.936Z,23.34
2022-08-28T06:17:53.949Z,23.29
2022-08-28T06:22:56.954Z,23.26
2022-08-28T06:27:59.813Z,23.24
2022-08-28T06:33:05.427Z,23.23
2022-08-28T06:38:09.242Z,23.24
2022-08-28T06:43:13.395Z,23.25
2022-08-28T06:48:17.967Z,23.26
2022-08-28T06:53:24.907Z,23.23
2022-08-28T06:58:28.363Z,23.23
2022-08-28T07:03:31.981Z,23.18
2022-08-28T07:08:36.487Z,23.20
2022-08-28T07:13:41.139Z,23.27
2022-08-28T07:18:45.649Z,23.34
2022-08-28T07:23:48.929Z,23.47
2022-08-28T07:28:59.524Z,23.61
2022-08-28T07:34:15.903Z,23.75
2022-08-28T07:39:19.654Z,23.92
2022-08-28T07:44:41.417Z,24.06
2022-08-28T07:49:45.271Z,24.20
2022-08-28T07:54:49.192Z,24.35
2022-08-28T07:59:52.517Z,24.52
2022-08-28T08:04:55.913Z,24.71
2022-08-28T08:09:58.909Z,24.81
2022-08-28T08:15:01.970Z,24.90
2022-08-28T08:20:06.644Z,24.95
2022-08-28T08:25:09.970Z,25.00
2022-08-28T08:30:13.275Z,25.06
2022-08-28T08:35:17.374Z,25.14
2022-08-28T08:40:20.793Z,25.20
2022-08-28T08:45:26.779Z,25.27
2022-08-28T08:50:35.863Z,25.37
2022-08-28T08:55:50.934Z,25.46
2022-08-28T09:01:01.905Z,25.54
2022-08-28T09:06:07.000Z,25.62
2022-08-28T09:11:28.420Z,25.71
2022-08-28T09:16:44.427Z,25.78
2022-08-28T09:21:48.863Z,25.80
2022-08-28T09:27:04.264Z,25.81
2022-08-28T09:32:39.397Z,25.82
2022-08-28T09:37:44.092Z,25.87
2022-08-28T09:43:25.575Z,25.92
2022-08-28T09:48:41.347Z,26.01
2022-08-28T09:53:53.723Z,26.12
2022-08-28T09:59:01.408Z,26.22
2022-08-28T10:04:38.661Z,26.30
2022-08-28T10:09:56.552Z,26.37
2022-08-28T10:15:18.161Z,26.40
2022-08-28T10:20:40.609Z,26.42
2022-08-28T10:25:59.057Z,26.42
2022-08-28T10:31:09.903Z,26.41
2022-08-28T10:36:33.342Z,26.39
2022-08-28T10:41:51.193Z,26.35
2022-08-28T10:46:57.533Z,26.33
2022-08-28T10:52:09.103Z,26.33
2022-08-28T10:57:25.690Z,26.35
2022-08-28T11:02:30.540Z,26.36
2022-08-28T11:07:51.129Z,26.37
2022-08-28T11:12:54.256Z,26.38
2022-08-28T11:18:16.767Z,26.39
2022-08-28T11:23:30.193Z,26.38
2022-08-28T11:28:35.768Z,26.38
2022-08-28T11:33:53.173Z,26.37
2022-08-28T11:38:56.197Z,26.39
2022-08-28T11:44:09.155Z,26.43
2022-08-28T11:49:24.676Z,26.49
2022-08-28T11:54:38.034Z,26.55
2022-08-28T11:59:53.735Z,26.57
2022-08-28T12:04:57.465Z,26.62
2022-08-28T12:10:04.376Z,26.65
2022-08-28T12:15:09.528Z,26.67
2022-08-28T12:20:21.400Z,26.78
2022-08-28T12:25:42.189Z,26.81
2022-08-28T12:31:06.758Z,26.88
2022-08-28T12:36:16.992Z,27.03
2022-08-28T12:41:21.865Z,27.14
2022-08-28T12:46:30.099Z,27.17
2022-08-28T12:51:36.004Z,27.16
2022-08-28T12:56:39.195Z,27.15
2022-08-28T13:01:42.798Z,27.22
2022-08-28T13:06:45.922Z,27.43
2022-08-28T13:11:51.639Z,27.87
2022-08-28T13:16:55.060Z,28.14
2022-08-28T13:22:02.219Z,28.36
2022-08-28T13:27:07.937Z,28.64
2022-08-28T13:32:17.591Z,28.97
2022-08-28T13:37:44.242Z,29.27
2022-08-28T13:42:47.941Z,29.52
2022-08-28T13:47:51.597Z,29.71
2022-08-28T13:52:55.617Z,29.82
2022-08-28T13:57:58.543Z,29.92
2022-08-28T14:03:20.241Z,30.14
2022-08-28T14:08:24.171Z,30.31
2022-08-28T14:13:27.983Z,30.12
2022-08-28T14:18:30.944Z,29.84
2022-08-28T14:23:34.329Z,29.56
2022-08-28T14:28:37.329Z,29.30
2022-08-28T14:33:40.309Z,29.12
2022-08-28T14:38:45.938Z,28.90
2022-08-28T14:43:49.782Z,28.67
2022-08-28T14:48:52.645Z,28.42
2022-08-28T14:53:55.627Z,28.22
2022-08-28T14:59:01.096Z,28.08
2022-08-28T15:04:07.004Z,27.94
2022-08-28T15:09:11.709Z,27.77
2022-08-28T15:14:14.614Z,27.64
2022-08-28T15:19:18.181Z,27.47
2022-08-28T15:24:24.844Z,27.20
2022-08-28T15:29:29.240Z,26.86
2022-08-28T15:34:32.490Z,26.52
2022-08-28T15:39:54.299Z,26.21
2022-08-28T15:44:57.656Z,25.88
2022-08-28T15:50:00.880Z,25.63
2022-08-28T15:55:06.372Z,25.38
2022-08-28T16:00:10.606Z,25.15
2022-08-28T16:05:13.821Z,24.88
2022-08-28T16:10:18.387Z,24.56
2022-08-28T16:15:21.739Z,24.31
2022-08-28T16:20:25.378Z,24.20
2022-08-28T16:25:28.436Z,24.05
2022-08-28T16:30:34.050Z,23.93
2022-08-28T16:35:49.286Z,23.90
2022-08-28T16:40:53.296Z,23.84
2022-08-28T16:45:56.492Z,23.77
2022-08-28T16:50:59.691Z,23.74
2022-08-28T16:56:03.723Z,23.74
2022-08-28T17:01:07.525Z,23.88
2022-08-28T17:06:19.847Z,23.97
2022-08-28T17:11:24.554Z,24.05
2022-08-28T17:16:31.553Z,24.07
2022-08-28T17:21:53.084Z,24.04
2022-08-28T17:26:55.949Z,24.00
2022-08-28T17:31:59.310Z,24.00
2022-08-28T17:37:03.550Z,23.99
2022-08-28T17:42:06.886Z,24.01
2022-08-28T17:47:09.947Z,24.05
2022-08-28T17:52:14.048Z,24.04
2022-08-28T17:57:17.573Z,24.04
2022-08-28T18:02:20.700Z,24.08
2022-08-28T18:07:23.742Z,24.13
2022-08-28T18:12:27.022Z,24.14
2022-08-28T18:17:30.080Z,24.11
2022-08-28T18:22:33.155Z,24.05
2022-08-28T18:27:36.688Z,24.02
2022-08-28T18:32:40.410Z,24.01
2022-08-28T18:37:44.148Z,24.00
2022-08-28T18:42:47.094Z,23.97
2022-08-28T18:47:50.351Z,23.95
2022-08-28T18:52:54.892Z,23.98
2022-08-28T18:57:59.594Z,24.00
2022-08-28T19:03:04.095Z,23.94
2022-08-28T19:08:08.012Z,23.83
2022-08-28T19:13:10.971Z,23.66
2022-08-28T19:18:14.162Z,23.49
2022-08-28T19:23:18.005Z,23.32
2022-08-28T19:28:21.171Z,23.22
2022-08-28T19:33:24.845Z,23.14
2022-08-28T19:38:29.472Z,23.04
2022-08-28T19:43:44.386Z,22.97
2022-08-28T19:48:53.409Z,22.91
2022-08-28T19:53:58.940Z,22.88
2022-08-28T19:59:06.313Z,22.82
2022-08-28T20:04:09.872Z,22.77
2022-08-28T20:09:13.289Z,22.74
2022-08-28T20:14:18.411Z,22.74
2022-08-28T20:19:23.522Z,22.78
2022-08-28T20:24:26.497Z,22.80
2022-08-28T20:29:29.664Z,22.76
2022-08-28T20:34:32.791Z,22.70
2022-08-28T20:39:37.556Z,22.65
2022-08-28T20:44:40.736Z,22.63
2022-08-28T20:49:43.615Z,22.63
2022-08-28T20:54:46.771Z,22.61
2022-08-28T20:59:50.840Z,22.54
2022-08-28T21:04:58.100Z,22.52
2022-08-28T21:10:07.522Z,22.53
2022-08-28T21:15:12.841Z,22.56
2022-08-28T21:20:16.398Z,22.55
2022-08-28T21:25:21.925Z,22.56
2022-08-28T21:30:25.476Z,22.61
2022-08-28T21:35:33.088Z,22.67
2022-08-28T21:40:36.099Z,22.72
2022-08-28T21:45:39.134Z,22.73
2022-08-28T21:50:43.009Z,22.71
2022-08-28T21:55:53.281Z,22.74
2022-08-28T22:00:59.021Z,22.74
2022-08-28T22:06:02.034Z,22.75
2022-08-28T22:11:05.113Z,22.76
2022-08-28T22:16:08.832Z,22.74
2022-08-28T22:21:33.340Z,22.73
2022-08-28T22:26:36.642Z,22.74
2022-08-28T22:31:46.194Z,22.77
2022-08-28T22:36:49.421Z,22.78
2022-08-28T22:41:52.282Z,22.74
2022-08-28T22:46:55.366Z,22.77
2022-08-28T22:51:58.186Z,22.83
2022-08-28T22:57:01.286Z,22.86
2022-08-28T23:02:04.808Z,22.86
2022-08-28T23:07:07.843Z,22.82
2022-08-28T23:12:10.748Z,22.79
2022-08-28T23:17:13.597Z,22.81
2022-08-28T23:22:16.520Z,22.80
2022-08-28T23:27:35.757Z,22.79
2022-08-28T23:32:39.549Z,22.76
2022-08-28T23:37:48.679Z,22.78
2022-08-28T23:42:56.275Z,22.81
2022-08-28T23:47:59.421Z,22.84
2022-08-28T23:53:04.505Z,22.79
2022-08-28T23:58:08.193Z,22.73
